Time;durP1;ratioP1;P1;durP2;ratioP2;P2;SDS_P1;SDS_P2;PMS_P1;PMS_P2;Temp;Humidity;BMP_temperature;BMP_pressure;BME280_temperature;BME280_humidity;BME280_pressure;Samples;Min_cycle;Max_cycle;Signal;HPM_P1;HPM_P2
2023/10/24 00:00:16;;;;;;;21.60;13.63;;;10.60;99.90;;;;;;6205616;23;20066;-81
2023/10/24 00:02:41;;;;;;;19.15;12.48;;;10.60;99.90;;;;;;6205779;23;20069;-81
2023/10/24 00:05:07;;;;;;;24.60;13.30;;;10.60;99.90;;;;;;6205330;23;20007;-81
2023/10/24 00:07:34;;;;;;;20.25;12.98;;;10.60;99.90;;;;;;6180465;23;20008;-81
2023/10/24 00:10:01;;;;;;;20.00;13.27;;;10.60;99.90;;;;;;6228449;23;20776;-81
2023/10/24 00:12:26;;;;;;;23.00;13.40;;;10.60;99.90;;;;;;6205522;23;20091;-81
2023/10/24 00:14:57;;;;;;;20.88;13.07;;;10.60;99.90;;;;;;6205493;23;20047;-81
2023/10/24 00:17:23;;;;;;;21.02;12.98;;;10.70;99.90;;;;;;6205723;23;20072;-81
2023/10/24 00:19:49;;;;;;;18.90;13.30;;;10.70;99.90;;;;;;6203923;23;20034;-81
2023/10/24 00:22:14;;;;;;;21.48;13.98;;;10.60;99.90;;;;;;6205854;23;20430;-81
2023/10/24 00:24:45;;;;;;;17.38;12.25;;;10.60;99.90;;;;;;6205157;23;20442;-81
2023/10/24 00:27:10;;;;;;;25.10;13.23;;;10.60;99.90;;;;;;6204733;23;20008;-81
2023/10/24 00:29:36;;;;;;;21.58;13.32;;;10.60;99.90;;;;;;6181014;23;20675;-81
2023/10/24 00:32:02;;;;;;;19.20;13.15;;;10.70;99.90;;;;;;6204293;23;20127;-81
2023/10/24 00:34:28;;;;;;;18.58;12.30;;;10.70;99.90;;;;;;6204011;23;20043;-81
2023/10/24 00:36:54;;;;;;;17.23;12.32;;;10.70;99.90;;;;;;6204509;23;20095;-80
2023/10/24 00:39:19;;;;;;;23.98;13.18;;;10.70;99.90;;;;;;6205545;23;20043;-81
2023/10/24 00:41:45;;;;;;;20.90;12.70;;;10.70;99.90;;;;;;6177074;23;20098;-81
2023/10/24 00:44:11;;;;;;;19.75;13.35;;;10.70;99.90;;;;;;6205458;23;20039;-81
2023/10/24 00:46:39;;;;;;;18.60;12.13;;;10.70;99.90;;;;;;6179067;23;20008;-82
2023/10/24 00:49:06;;;;;;;20.38;12.45;;;10.70;99.90;;;;;;6180722;23;20016;-81
2023/10/24 00:51:32;;;;;;;21.63;12.90;;;10.70;99.90;;;;;;6179474;23;20110;-81
2023/10/24 00:53:59;;;;;;;19.23;11.98;;;10.80;99.90;;;;;;6180511;23;20044;-81
2023/10/24 00:56:27;;;;;;;19.88;13.60;;;10.70;99.90;;;;;;6177523;23;20049;-81
2023/10/24 00:58:53;;;;;;;20.00;13.07;;;10.80;99.90;;;;;;6205186;23;20186;-81
2023/10/24 01:01:19;;;;;;;20.02;13.85;;;10.80;99.90;;;;;;6205138;23;20453;-81
2023/10/24 01:03:48;;;;;;;22.60;13.18;;;10.80;99.90;;;;;;6205553;23;20012;-81
2023/10/24 01:06:17;;;;;;;20.08;12.68;;;10.70;99.90;;;;;;6204803;23;20016;-81
2023/10/24 01:08:43;;;;;;;20.25;12.98;;;10.70;99.90;;;;;;6180976;23;20514;-81
2023/10/24 01:11:09;;;;;;;24.05;13.63;;;10.80;99.90;;;;;;6202243;23;20016;-81
2023/10/24 01:13:36;;;;;;;18.50;12.45;;;10.80;99.90;;;;;;6181031;23;20095;-81
2023/10/24 01:16:01;;;;;;;20.48;13.20;;;10.70;99.90;;;;;;6204077;23;20095;-81
2023/10/24 01:18:27;;;;;;;18.98;12.63;;;10.70;99.90;;;;;;6180539;23;20070;-81
2023/10/24 01:20:52;;;;;;;18.67;12.63;;;10.80;99.90;;;;;;6178681;23;20027;-81
2023/10/24 01:23:18;;;;;;;22.92;13.35;;;10.80;99.90;;;;;;6180331;23;20043;-81
2023/10/24 01:25:45;;;;;;;20.42;13.27;;;10.80;99.90;;;;;;6176735;23;20016;-81
2023/10/24 01:28:11;;;;;;;21.40;13.48;;;10.80;99.90;;;;;;6205935;23;20022;-81
2023/10/24 01:30:38;;;;;;;18.48;13.55;;;10.80;99.90;;;;;;6179404;23;20012;-82
2023/10/24 01:33:04;;;;;;;21.60;13.27;;;10.80;99.90;;;;;;6203037;23;20070;-81
2023/10/24 01:35:30;;;;;;;20.38;13.68;;;10.80;99.90;;;;;;6204232;23;20016;-81
2023/10/24 01:37:56;;;;;;;22.45;13.90;;;10.80;99.90;;;;;;6180355;23;20095;-81
2023/10/24 01:40:22;;;;;;;20.02;13.02;;;10.90;99.90;;;;;;6202574;23;20107;-81
2023/10/24 01:42:47;;;;;;;20.45;13.68;;;10.80;99.90;;;;;;6179841;23;20020;-81
2023/10/24 01:45:15;;;;;;;20.75;14.35;;;10.80;99.90;;;;;;6204907;23;20282;-81
2023/10/24 01:47:41;;;;;;;21.25;14.00;;;10.80;99.90;;;;;;6180348;23;20267;-81
2023/10/24 01:50:07;;;;;;;21.38;13.65;;;10.80;99.90;;;;;;6179502;23;20039;-81
2023/10/24 01:52:33;;;;;;;21.92;14.20;;;10.90;99.90;;;;;;6205339;23;20020;-81
2023/10/24 01:54:59;;;;;;;22.88;14.63;;;10.90;99.90;;;;;;6177008;23;20457;-81
2023/10/24 01:57:25;;;;;;;21.48;15.20;;;10.90;99.90;;;;;;6204306;23;20012;-81
2023/10/24 01:59:50;;;;;;;21.25;14.05;;;10.90;99.90;;;;;;6179503;23;20197;-81
2023/10/24 02:02:16;;;;;;;21.42;14.23;;;10.90;99.90;;;;;;6205270;23;20054;-81
2023/10/24 02:04:42;;;;;;;20.45;14.50;;;10.90;99.90;;;;;;6204817;23;20250;-81
2023/10/24 02:07:08;;;;;;;21.13;13.98;;;10.90;99.90;;;;;;6204707;23;20005;-81
2023/10/24 02:09:34;;;;;;;19.52;14.10;;;11.00;99.90;;;;;;6230844;23;20090;-81
2023/10/24 02:12:01;;;;;;;22.05;15.05;;;11.00;99.90;;;;;;6201889;23;20070;-81
2023/10/24 02:14:28;;;;;;;23.70;14.27;;;11.00;99.90;;;;;;6205049;23;20012;-81
2023/10/24 02:16:53;;;;;;;20.00;14.07;;;11.00;99.90;;;;;;6203997;23;20030;-81
2023/10/24 02:19:19;;;;;;;19.55;14.27;;;11.10;99.90;;;;;;6205272;23;20016;-81
2023/10/24 02:21:45;;;;;;;22.88;14.80;;;11.00;99.90;;;;;;6204563;23;20093;-81
2023/10/24 02:24:10;;;;;;;24.58;15.07;;;11.00;99.90;;;;;;6205629;23;20020;-81
2023/10/24 02:26:37;;;;;;;20.58;13.60;;;11.10;99.90;;;;;;6177149;23;20043;-81
2023/10/24 02:29:02;;;;;;;19.63;13.57;;;11.10;99.90;;;;;;6182413;23;20012;-81
2023/10/24 02:31:30;;;;;;;16.98;12.38;;;11.00;99.90;;;;;;6181350;23;20022;-82
2023/10/24 02:33:56;;;;;;;20.45;13.00;;;11.10;99.90;;;;;;6206725;23;20015;-81
2023/10/24 02:36:22;;;;;;;20.10;12.88;;;11.10;99.90;;;;;;6180532;23;20100;-81
2023/10/24 02:38:47;;;;;;;19.05;13.30;;;11.10;99.90;;;;;;6182584;23;20016;-81
2023/10/24 02:41:13;;;;;;;19.50;13.13;;;11.20;99.90;;;;;;6203184;23;20110;-81
2023/10/24 02:43:39;;;;;;;19.95;13.15;;;11.10;99.90;;;;;;6181658;23;20016;-81
2023/10/24 02:46:07;;;;;;;23.48;13.52;;;11.20;99.90;;;;;;6205757;23;20454;-81
2023/10/24 02:48:33;;;;;;;19.80;12.73;;;11.30;99.90;;;;;;6206722;23;20062;-81
2023/10/24 02:50:59;;;;;;;17.75;11.82;;;11.20;99.90;;;;;;6205968;23;20019;-81
2023/10/24 02:53:25;;;;;;;21.80;12.93;;;11.30;99.90;;;;;;6207038;23;20016;-81
2023/10/24 02:55:51;;;;;;;17.50;12.38;;;11.30;99.90;;;;;;6203700;23;20015;-82
2023/10/24 02:58:18;;;;;;;18.48;11.50;;;11.20;99.90;;;;;;6206430;23;20026;-81
2023/10/24 03:00:44;;;;;;;17.13;11.73;;;11.40;99.90;;;;;;6181083;23;20279;-81
2023/10/24 03:03:11;;;;;;;16.77;11.52;;;11.30;99.90;;;;;;6232097;23;20026;-81
2023/10/24 03:05:37;;;;;;;16.60;11.45;;;11.40;99.90;;;;;;6206088;23;20503;-81
2023/10/24 03:08:04;;;;;;;16.42;11.38;;;11.40;99.90;;;;;;6182058;23;20012;-81
2023/10/24 03:10:30;;;;;;;16.02;11.32;;;11.40;99.90;;;;;;6203544;23;20026;-81
2023/10/24 03:12:56;;;;;;;17.98;12.30;;;11.40;99.90;;;;;;6206196;23;20020;-81
2023/10/24 03:15:22;;;;;;;16.98;11.98;;;11.40;99.90;;;;;;6180754;23;20018;-81
2023/10/24 03:17:47;;;;;;;17.88;11.57;;;11.50;99.90;;;;;;6181681;23;20015;-81
2023/10/24 03:20:14;;;;;;;18.65;11.60;;;11.40;99.90;;;;;;6180939;23;20024;-81
2023/10/24 03:22:39;;;;;;;16.73;12.00;;;11.40;99.90;;;;;;6206302;23;20024;-80
2023/10/24 03:25:06;;;;;;;17.08;11.23;;;11.50;99.90;;;;;;6204300;23;20020;-81
2023/10/24 03:27:32;;;;;;;17.38;11.48;;;11.40;99.90;;;;;;6206365;23;20016;-81
2023/10/24 03:29:58;;;;;;;16.88;12.13;;;11.60;99.90;;;;;;6205548;23;20078;-81
2023/10/24 03:32:23;;;;;;;22.58;13.73;;;11.60;99.90;;;;;;6231804;23;20056;-81
2023/10/24 03:34:49;;;;;;;19.65;13.00;;;11.50;99.90;;;;;;6180620;23;20012;-81
2023/10/24 03:37:17;;;;;;;17.98;11.80;;;11.60;99.90;;;;;;6206019;23;20016;-80
2023/10/24 03:39:43;;;;;;;17.42;12.10;;;11.50;99.90;;;;;;6179972;23;20177;-81
2023/10/24 03:42:13;;;;;;;17.10;12.45;;;11.60;99.90;;;;;;6179283;23;20251;-81
2023/10/24 03:44:40;;;;;;;21.23;13.77;;;11.70;99.90;;;;;;6205888;23;20087;-81
2023/10/24 03:47:05;;;;;;;20.30;13.18;;;11.60;99.90;;;;;;6231357;23;20395;-81
2023/10/24 03:49:31;;;;;;;23.70;14.00;;;11.60;99.90;;;;;;6180853;23;20008;-81
2023/10/24 03:51:57;;;;;;;22.92;14.52;;;11.70;99.90;;;;;;6180252;23;20008;-81
2023/10/24 03:54:23;;;;;;;21.55;14.27;;;11.70;99.90;;;;;;6206237;23;20023;-81
2023/10/24 03:56:49;;;;;;;18.90;13.57;;;11.70;99.90;;;;;;6177760;23;20016;-81
2023/10/24 03:59:15;;;;;;;21.42;14.30;;;11.70;99.90;;;;;;6180873;23;20066;-81
2023/10/24 04:01:41;;;;;;;18.65;13.60;;;11.80;99.90;;;;;;6180708;23;20016;-81
2023/10/24 04:04:07;;;;;;;21.30;14.40;;;11.90;99.90;;;;;;6180645;23;20016;-81
2023/10/24 04:06:35;;;;;;;21.42;13.65;;;11.80;99.90;;;;;;6230380;23;20008;-81
2023/10/24 04:09:04;;;;;;;20.02;13.25;;;11.80;99.90;;;;;;6206017;23;20027;-81
2023/10/24 04:11:32;;;;;;;19.13;13.18;;;11.80;99.90;;;;;;6227996;23;20085;-81
2023/10/24 04:13:58;;;;;;;19.70;13.63;;;11.80;99.90;;;;;;6230938;23;20471;-81
2023/10/24 04:16:24;;;;;;;19.35;13.13;;;11.90;99.90;;;;;;6204843;23;20019;-81
2023/10/24 04:18:50;;;;;;;19.13;12.95;;;11.90;99.90;;;;;;6205818;23;20081;-81
2023/10/24 04:21:16;;;;;;;20.55;13.55;;;11.90;99.90;;;;;;6203970;23;20452;-81
2023/10/24 04:23:43;;;;;;;24.20;14.10;;;11.80;99.90;;;;;;6205219;23;20043;-81
2023/10/24 04:26:09;;;;;;;20.48;13.98;;;11.80;99.90;;;;;;6202322;23;20035;-81
2023/10/24 04:28:34;;;;;;;20.77;14.07;;;11.90;99.90;;;;;;6180505;23;20023;-81
2023/10/24 04:31:00;;;;;;;17.73;12.52;;;12.00;99.90;;;;;;6203890;23;20016;-81
2023/10/24 04:33:26;;;;;;;20.95;14.35;;;11.90;99.90;;;;;;6206099;23;20012;-81
2023/10/24 04:35:51;;;;;;;22.17;14.32;;;12.00;99.90;;;;;;6179541;23;20414;-81
2023/10/24 04:38:18;;;;;;;21.13;13.93;;;12.10;99.90;;;;;;6204343;23;20020;-81
2023/10/24 04:40:44;;;;;;;23.15;14.43;;;12.10;99.90;;;;;;6227137;23;20058;-81
2023/10/24 04:43:10;;;;;;;30.08;16.00;;;12.00;99.90;;;;;;6229977;23;20016;-82
2023/10/24 04:45:37;;;;;;;20.65;14.95;;;12.10;99.90;;;;;;6179117;23;20090;-81
2023/10/24 04:48:03;;;;;;;20.98;13.90;;;12.10;99.90;;;;;;6205496;23;20128;-81
2023/10/24 04:50:29;;;;;;;21.45;15.45;;;12.10;99.90;;;;;;6178864;23;20051;-81
2023/10/24 04:52:55;;;;;;;22.30;15.32;;;12.10;99.90;;;;;;6180469;23;20285;-82
2023/10/24 04:55:22;;;;;;;21.70;15.77;;;12.20;99.90;;;;;;6177073;23;20022;-81
2023/10/24 04:57:47;;;;;;;20.75;14.88;;;12.10;99.90;;;;;;6204157;23;20282;-81
2023/10/24 05:00:14;;;;;;;23.23;15.98;;;12.20;99.90;;;;;;6204457;23;20024;-81
2023/10/24 05:02:41;;;;;;;24.08;15.57;;;12.30;99.90;;;;;;6204557;23;20095;-81
2023/10/24 05:05:07;;;;;;;23.23;15.70;;;12.30;99.90;;;;;;6179545;23;20469;-81
2023/10/24 05:07:33;;;;;;;19.48;14.82;;;12.20;99.90;;;;;;6204003;23;20012;-81
2023/10/24 05:10:13;;;;;;;20.63;15.35;;;12.20;99.90;;;;;;6172309;23;20030;-81
2023/10/24 05:12:39;;;;;;;22.70;16.17;;;12.20;99.90;;;;;;6178571;23;20106;-81
2023/10/24 05:15:05;;;;;;;21.58;15.35;;;12.20;99.90;;;;;;6178624;23;20070;-81
2023/10/24 05:17:31;;;;;;;22.80;15.55;;;12.30;99.90;;;;;;6204789;23;20320;-81
2023/10/24 05:19:59;;;;;;;19.55;14.80;;;12.20;99.90;;;;;;6178705;23;20448;-81
2023/10/24 05:22:25;;;;;;;26.67;15.32;;;12.20;99.90;;;;;;6174561;23;20969;-81
2023/10/24 05:24:51;;;;;;;21.35;15.77;;;12.20;99.90;;;;;;6172643;23;20151;-81
2023/10/24 05:27:17;;;;;;;19.98;14.95;;;12.20;99.90;;;;;;6199632;23;20013;-81
2023/10/24 05:29:43;;;;;;;21.10;15.35;;;12.20;99.90;;;;;;6174112;23;20134;-81
2023/10/24 05:32:08;;;;;;;24.35;14.93;;;12.20;99.90;;;;;;6199174;23;20012;-81
2023/10/24 05:34:34;;;;;;;21.77;15.43;;;12.30;99.90;;;;;;6174822;23;20041;-81
2023/10/24 05:37:00;;;;;;;20.63;15.80;;;12.20;99.90;;;;;;6173950;23;20099;-81
2023/10/24 05:39:28;;;;;;;20.50;15.73;;;12.30;99.90;;;;;;6174299;23;20024;-81
2023/10/24 05:41:54;;;;;;;22.35;15.55;;;12.30;99.90;;;;;;6172426;23;20490;-81
2023/10/24 05:44:19;;;;;;;22.80;14.57;;;12.20;99.90;;;;;;6176345;23;20009;-81
2023/10/24 05:46:46;;;;;;;22.45;13.77;;;12.40;99.90;;;;;;6173547;23;20009;-81
2023/10/24 05:49:12;;;;;;;15.75;12.00;;;12.20;99.90;;;;;;6174573;23;20366;-81
2023/10/24 05:51:37;;;;;;;18.48;12.70;;;12.20;99.90;;;;;;6174527;23;20008;-82
2023/10/24 05:54:03;;;;;;;18.70;12.60;;;12.20;99.90;;;;;;6175392;23;20287;-81
2023/10/24 05:56:31;;;;;;;18.60;12.57;;;12.20;99.90;;;;;;6196953;23;20342;-82
2023/10/24 05:58:57;;;;;;;17.23;12.10;;;12.30;99.90;;;;;;6200017;23;20048;-81
2023/10/24 06:01:22;;;;;;;19.90;12.18;;;12.30;99.90;;;;;;6199477;23;20074;-81
2023/10/24 06:03:48;;;;;;;13.07;9.30;;;12.10;99.90;;;;;;6177937;23;20020;-81
2023/10/24 06:06:13;;;;;;;15.15;9.20;;;12.20;99.90;;;;;;6176636;23;20039;-81
2023/10/24 06:08:39;;;;;;;14.55;9.10;;;12.10;99.90;;;;;;6202697;23;20027;-81
2023/10/24 06:11:05;;;;;;;11.48;8.48;;;12.20;99.90;;;;;;6173710;23;20051;-81
2023/10/24 06:13:34;;;;;;;14.10;9.23;;;12.20;99.90;;;;;;6202369;23;20086;-81
2023/10/24 06:16:13;;;;;;;13.30;8.88;;;12.30;99.90;;;;;;6201695;23;20032;-81
2023/10/24 06:18:39;;;;;;;15.00;9.60;;;12.30;99.90;;;;;;6202200;23;20539;-81
2023/10/24 06:21:06;;;;;;;15.82;9.02;;;12.20;99.90;;;;;;6201799;23;20334;-81
2023/10/24 06:23:33;;;;;;;13.60;9.05;;;12.20;99.90;;;;;;6202029;23;20473;-81
2023/10/24 06:25:59;;;;;;;13.73;8.40;;;12.30;99.90;;;;;;6199413;23;20055;-81
2023/10/24 06:28:25;;;;;;;15.48;8.93;;;12.20;99.90;;;;;;6201809;23;20071;-81
2023/10/24 06:30:59;;;;;;;15.45;8.60;;;12.20;99.90;;;;;;6201644;23;20398;-82
2023/10/24 06:33:30;;;;;;;13.30;7.85;;;12.30;99.90;;;;;;6202023;23;20016;-81
2023/10/24 06:36:02;;;;;;;12.27;8.10;;;12.30;99.90;;;;;;6200829;23;20020;-81
2023/10/24 06:38:28;;;;;;;11.77;7.80;;;12.20;99.90;;;;;;6202077;23;20488;-81
2023/10/24 06:40:55;;;;;;;11.68;8.30;;;12.30;99.90;;;;;;6173150;23;20060;-81
2023/10/24 06:43:21;;;;;;;12.45;8.18;;;12.20;99.90;;;;;;6201934;23;20009;-81
2023/10/24 06:45:47;;;;;;;13.75;8.20;;;12.30;99.90;;;;;;6175851;23;20464;-81
2023/10/24 06:48:13;;;;;;;13.00;8.13;;;12.30;99.90;;;;;;6201464;23;20119;-81
2023/10/24 06:50:39;;;;;;;13.38;9.23;;;12.30;99.90;;;;;;6200617;23;20020;-81
2023/10/24 06:53:09;;;;;;;10.13;7.30;;;12.30;99.90;;;;;;6201525;23;20288;-81
2023/10/24 06:55:36;;;;;;;12.65;7.30;;;12.30;99.90;;;;;;6199526;23;20679;-81
2023/10/24 06:58:03;;;;;;;11.93;7.65;;;12.30;99.90;;;;;;6201139;23;20017;-82
2023/10/24 07:00:30;;;;;;;13.60;7.88;;;12.30;99.90;;;;;;6175267;23;20095;-81
2023/10/24 07:02:55;;;;;;;10.48;7.13;;;12.30;99.90;;;;;;6201535;23;20027;-82
2023/10/24 07:05:21;;;;;;;16.23;7.18;;;12.30;99.90;;;;;;6175983;23;20768;-82
2023/10/24 07:07:47;;;;;;;11.88;7.78;;;12.30;99.90;;;;;;6201663;23;20044;-81
2023/10/24 07:10:13;;;;;;;10.10;6.45;;;12.30;99.90;;;;;;6198979;23;20028;-82
2023/10/24 07:12:39;;;;;;;12.18;6.70;;;12.30;99.90;;;;;;6201238;23;20090;-82
2023/10/24 07:15:05;;;;;;;11.60;7.70;;;12.30;99.90;;;;;;6200350;23;20013;-81
2023/10/24 07:17:31;;;;;;;12.23;7.68;;;12.40;99.90;;;;;;6201488;23;20465;-81
2023/10/24 07:20:00;;;;;;;13.40;7.75;;;12.30;99.90;;;;;;6200986;23;20052;-82
2023/10/24 07:22:27;;;;;;;13.73;6.97;;;12.30;99.90;;;;;;6175806;23;20017;-82
2023/10/24 07:24:53;;;;;;;12.52;7.32;;;12.40;99.90;;;;;;6199355;23;20431;-81
2023/10/24 07:27:20;;;;;;;13.23;7.40;;;12.40;99.90;;;;;;6200823;23;20039;-81
2023/10/24 07:29:45;;;;;;;16.23;8.15;;;12.30;99.90;;;;;;6201503;23;20020;-82
2023/10/24 07:32:12;;;;;;;13.25;7.18;;;12.40;99.90;;;;;;6201970;23;20020;-82
2023/10/24 07:34:41;;;;;;;13.30;7.93;;;12.40;99.90;;;;;;6201587;23;20016;-81
2023/10/24 07:37:08;;;;;;;13.13;7.22;;;12.40;99.90;;;;;;6201612;23;20114;-81
2023/10/24 07:39:34;;;;;;;13.10;7.60;;;12.50;99.90;;;;;;6201669;23;20527;-81
2023/10/24 07:42:00;;;;;;;12.93;7.22;;;12.50;99.90;;;;;;6198418;23;20032;-81
2023/10/24 07:44:26;;;;;;;12.98;7.75;;;12.40;99.90;;;;;;6201831;23;20103;-81
2023/10/24 07:46:52;;;;;;;10.75;7.13;;;12.40;99.90;;;;;;6200752;23;20102;-81
2023/10/24 07:49:17;;;;;;;12.68;7.13;;;12.50;99.90;;;;;;6176465;23;20070;-81
2023/10/24 07:51:43;;;;;;;14.63;6.78;;;12.50;99.90;;;;;;6175652;23;20505;-81
2023/10/24 07:54:10;;;;;;;14.18;7.43;;;12.50;99.90;;;;;;6201351;23;20021;-81
2023/10/24 07:56:38;;;;;;;13.73;7.13;;;12.60;99.90;;;;;;6198147;23;20602;-82
2023/10/24 07:59:04;;;;;;;11.15;7.50;;;12.50;99.90;;;;;;6200292;23;20016;-82
2023/10/24 08:01:30;;;;;;;10.27;6.60;;;12.50;99.90;;;;;;6200481;23;20020;-82
2023/10/24 08:03:56;;;;;;;11.75;6.95;;;12.50;99.90;;;;;;6176184;23;20409;-86
2023/10/24 08:06:21;;;;;;;10.55;7.20;;;12.50;99.90;;;;;;6175210;23;20078;-86
2023/10/24 08:08:47;;;;;;;12.50;7.35;;;12.50;99.90;;;;;;6201183;23;20481;-86
2023/10/24 08:11:13;;;;;;;12.15;6.65;;;12.60;99.90;;;;;;6197370;23;20334;-86
2023/10/24 08:13:39;;;;;;;10.85;7.03;;;12.60;99.90;;;;;;6200992;23;20097;-86
2023/10/24 08:16:06;;;;;;;10.68;6.80;;;12.60;99.90;;;;;;6200756;23;20017;-86
2023/10/24 08:18:32;;;;;;;12.93;7.40;;;12.60;99.90;;;;;;6200435;23;20075;-86
2023/10/24 08:20:57;;;;;;;12.18;6.72;;;12.60;99.90;;;;;;6200320;23;20059;-86
2023/10/24 08:23:23;;;;;;;11.25;6.95;;;12.60;99.90;;;;;;6175649;23;20023;-86
2023/10/24 08:25:48;;;;;;;11.13;7.05;;;12.50;99.90;;;;;;6197569;23;20090;-85
2023/10/24 08:28:14;;;;;;;11.30;6.35;;;12.50;99.90;;;;;;6201164;23;20103;-86
2023/10/24 08:30:40;;;;;;;13.02;6.80;;;12.50;99.90;;;;;;6175460;23;20021;-86
2023/10/24 08:33:06;;;;;;;12.02;7.28;;;12.60;99.90;;;;;;6201689;23;20020;-86
2023/10/24 08:35:32;;;;;;;13.70;7.15;;;12.50;99.90;;;;;;6175403;23;20509;-86
2023/10/24 08:37:58;;;;;;;13.95;7.15;;;12.60;99.90;;;;;;6200452;23;20054;-86
2023/10/24 08:40:23;;;;;;;12.10;6.90;;;12.50;99.90;;;;;;6198985;23;20429;-86
2023/10/24 08:42:49;;;;;;;11.27;7.03;;;12.60;99.90;;;;;;6175508;23;20013;-87
2023/10/24 08:45:17;;;;;;;11.43;7.18;;;12.50;99.90;;;;;;6200664;23;20054;-86
2023/10/24 08:47:45;;;;;;;13.15;7.40;;;12.50;99.90;;;;;;6201234;23;20416;-85
2023/10/24 08:50:11;;;;;;;12.00;6.68;;;12.50;99.90;;;;;;6200539;23;20016;-86
2023/10/24 08:52:37;;;;;;;14.75;7.72;;;12.60;99.90;;;;;;6175677;23;20418;-86
2023/10/24 08:55:04;;;;;;;13.82;6.85;;;12.60;99.90;;;;;;6173970;23;20069;-86
2023/10/24 08:57:34;;;;;;;12.98;6.85;;;12.60;99.90;;;;;;6199759;23;20750;-86
2023/10/24 09:00:01;;;;;;;15.27;7.38;;;12.50;99.90;;;;;;6200509;23;20493;-86
2023/10/24 09:02:27;;;;;;;12.00;7.43;;;12.50;99.90;;;;;;6200564;23;20019;-86
2023/10/24 09:04:54;;;;;;;13.50;7.65;;;12.60;99.90;;;;;;6200731;23;20008;-86
2023/10/24 09:07:19;;;;;;;13.82;7.60;;;12.60;99.90;;;;;;6200826;23;20342;-86
2023/10/24 09:09:45;;;;;;;14.23;7.28;;;12.70;99.90;;;;;;6199366;23;20020;-85
2023/10/24 09:12:14;;;;;;;12.50;6.80;;;12.70;99.90;;;;;;6174739;23;20017;-86
2023/10/24 09:14:44;;;;;;;15.70;7.72;;;12.60;99.90;;;;;;6200532;23;20020;-86
2023/10/24 09:17:17;;;;;;;13.63;7.72;;;12.60;99.90;;;;;;6201295;23;20390;-86
2023/10/24 09:19:43;;;;;;;13.45;7.40;;;12.50;99.90;;;;;;6200716;23;20020;-86
2023/10/24 09:22:10;;;;;;;14.43;7.50;;;12.60;99.90;;;;;;6200459;23;20374;-87
2023/10/24 09:24:36;;;;;;;13.10;8.60;;;12.60;99.90;;;;;;6200988;23;20119;-86
2023/10/24 09:27:02;;;;;;;12.27;7.53;;;12.80;99.90;;;;;;6172902;23;20008;-86
2023/10/24 09:29:29;;;;;;;12.65;7.53;;;12.60;99.90;;;;;;6200907;23;20059;-87
2023/10/24 09:31:59;;;;;;;13.60;7.82;;;12.70;99.90;;;;;;6200460;23;20489;-86
2023/10/24 09:34:26;;;;;;;13.20;7.47;;;12.50;99.90;;;;;;6200450;23;20025;-86
2023/10/24 09:36:52;;;;;;;14.88;7.10;;;12.50;99.90;;;;;;6199992;23;20091;-87
2023/10/24 09:39:18;;;;;;;14.38;7.63;;;12.50;99.90;;;;;;6200652;23;20473;-87
2023/10/24 09:41:47;;;;;;;15.35;7.93;;;12.40;99.90;;;;;;6197895;23;20025;-86
2023/10/24 09:44:14;;;;;;;11.75;7.43;;;12.50;99.90;;;;;;6175534;23;20027;-85
2023/10/24 09:46:40;;;;;;;13.57;7.28;;;12.40;99.90;;;;;;6199857;23;20525;-87
2023/10/24 09:49:07;;;;;;;11.75;7.10;;;12.40;99.90;;;;;;6175244;23;20012;-86
2023/10/24 09:51:37;;;;;;;12.70;7.15;;;12.40;99.90;;;;;;6199401;23;20017;-86
2023/10/24 09:54:05;;;;;;;13.27;7.03;;;12.50;99.90;;;;;;6200696;23;20017;-87
2023/10/24 09:56:31;;;;;;;10.82;6.95;;;12.30;99.90;;;;;;6196875;23;20020;-87
2023/10/24 09:58:58;;;;;;;11.52;7.40;;;12.40;99.90;;;;;;6175111;23;20035;-86
2023/10/24 10:01:27;;;;;;;11.02;6.50;;;12.40;99.90;;;;;;6199322;23;20016;-86
2023/10/24 10:03:56;;;;;;;11.23;6.90;;;12.40;99.90;;;;;;6200418;23;20009;-86
2023/10/24 10:06:26;;;;;;;12.13;7.15;;;12.40;99.90;;;;;;6199300;23;20012;-86
2023/10/24 10:08:58;;;;;;;13.88;6.85;;;12.40;99.90;;;;;;6200383;23;20024;-86
2023/10/24 10:11:28;;;;;;;12.20;7.10;;;12.40;99.90;;;;;;6221945;23;20047;-82
2023/10/24 10:14:16;;;;;;;11.63;7.55;;;12.40;99.90;;;;;;6200295;23;20477;-82
2023/10/24 10:17:38;;;;;;;10.43;7.05;;;12.40;99.90;;;;;;6199603;23;20023;-82
2023/10/24 10:20:12;;;;;;;11.85;7.28;;;12.30;99.90;;;;;;6031671;23;20432;-81
2023/10/24 10:22:54;;;;;;;11.55;6.80;;;12.30;99.90;;;;;;6031673;23;20449;-82
2023/10/24 10:25:29;;;;;;;10.93;7.13;;;12.40;99.90;;;;;;6136267;23;20417;-81
2023/10/24 10:28:22;;;;;;;11.65;7.40;;;12.40;99.90;;;;;;6174415;23;20013;-81
2023/10/24 10:31:14;;;;;;;11.15;7.32;;;12.50;99.90;;;;;;6174476;23;20024;-81
2023/10/24 10:33:40;;;;;;;12.15;7.60;;;12.50;99.90;;;;;;6199854;23;20439;-81
2023/10/24 10:36:09;;;;;;;10.18;7.25;;;12.60;99.90;;;;;;6199321;23;20021;-81
2023/10/24 10:38:37;;;;;;;11.07;7.15;;;12.60;99.90;;;;;;6200052;23;20020;-82
2023/10/24 10:41:21;;;;;;;11.70;7.78;;;12.80;99.90;;;;;;6196774;23;20551;-81
2023/10/24 10:44:01;;;;;;;10.43;7.63;;;12.80;99.90;;;;;;6175369;23;20248;-82
2023/10/24 10:46:27;;;;;;;10.63;6.50;;;12.80;99.90;;;;;;6199617;23;20554;-82
2023/10/24 10:49:06;;;;;;;12.23;7.65;;;12.90;99.90;;;;;;6200385;23;20012;-82
2023/10/24 10:51:38;;;;;;;11.77;7.25;;;12.90;99.90;;;;;;6200791;23;20021;-82
2023/10/24 10:54:23;;;;;;;12.93;7.32;;;13.00;99.90;;;;;;6176404;23;20016;-82
2023/10/24 10:56:49;;;;;;;10.47;6.67;;;13.00;99.90;;;;;;6173704;23;20016;-81
2023/10/24 10:59:28;;;;;;;11.85;6.97;;;13.10;99.90;;;;;;6176692;23;20269;-82
2023/10/24 11:02:32;;;;;;;11.32;7.28;;;13.00;99.90;;;;;;6175646;23;20517;-81
2023/10/24 11:04:57;;;;;;;10.30;6.82;;;13.10;99.90;;;;;;6176670;23;20020;-81
2023/10/24 11:07:51;;;;;;;12.25;7.40;;;13.00;99.90;;;;;;6202284;23;20465;-82
2023/10/24 11:10:18;;;;;;;11.35;6.95;;;13.00;99.90;;;;;;6199773;23;20022;-82
2023/10/24 11:12:47;;;;;;;12.90;7.32;;;12.80;99.90;;;;;;6201472;23;20020;-82
2023/10/24 11:15:19;;;;;;;11.00;6.53;;;12.90;99.90;;;;;;6201082;23;20366;-82
2023/10/24 11:17:46;;;;;;;10.60;7.00;;;13.10;99.90;;;;;;6176959;23;20027;-82
2023/10/24 11:20:11;;;;;;;12.85;7.22;;;13.00;99.90;;;;;;6201225;23;20504;-82
2023/10/24 11:22:38;;;;;;;10.52;6.72;;;13.00;99.90;;;;;;6176668;23;20021;-81
2023/10/24 11:25:16;;;;;;;10.77;7.22;;;13.10;99.90;;;;;;6199579;23;20424;-82
2023/10/24 11:27:43;;;;;;;11.50;6.80;;;13.00;99.90;;;;;;6176121;23;20342;-82
2023/10/24 11:30:09;;;;;;;9.43;6.28;;;13.00;99.90;;;;;;6200976;23;20081;-82
2023/10/24 11:32:35;;;;;;;11.98;6.85;;;13.00;99.90;;;;;;6201571;23;20040;-82
2023/10/24 11:35:02;;;;;;;10.48;6.82;;;13.00;99.90;;;;;;6201438;23;20074;-82
2023/10/24 11:37:28;;;;;;;13.55;7.65;;;13.00;99.90;;;;;;6201356;23;20012;-82
2023/10/24 11:39:56;;;;;;;11.43;6.85;;;13.10;99.90;;;;;;6199378;23;20496;-82
2023/10/24 11:42:22;;;;;;;10.82;6.57;;;13.10;99.90;;;;;;6200839;23;20095;-82
2023/10/24 11:44:48;;;;;;;12.73;7.38;;;13.10;99.90;;;;;;6201350;23;20055;-81
2023/10/24 11:47:15;;;;;;;11.65;6.80;;;13.00;99.90;;;;;;6176118;23;20016;-81
2023/10/24 11:49:40;;;;;;;10.98;7.15;;;13.10;99.90;;;;;;6201766;23;20013;-82
2023/10/24 11:52:06;;;;;;;12.48;6.88;;;13.10;99.90;;;;;;6201270;23;20479;-82
2023/10/24 11:54:32;;;;;;;10.80;6.88;;;13.00;99.90;;;;;;6176362;23;20350;-82
2023/10/24 11:56:59;;;;;;;10.35;6.85;;;13.10;99.90;;;;;;6197031;23;20013;-81
2023/10/24 11:59:33;;;;;;;14.07;7.10;;;13.00;99.90;;;;;;6200975;23;20092;-82
2023/10/24 12:02:00;;;;;;;12.25;7.57;;;13.00;99.90;;;;;;6199742;23;20021;-81
2023/10/24 12:04:26;;;;;;;11.15;7.25;;;12.90;99.90;;;;;;6201863;23;20087;-82
2023/10/24 12:07:02;;;;;;;10.20;7.05;;;12.90;99.90;;;;;;6175464;23;20417;-81
2023/10/24 12:09:31;;;;;;;10.80;6.95;;;12.80;99.90;;;;;;6201628;23;20422;-81
2023/10/24 12:11:56;;;;;;;9.43;6.57;;;12.80;99.90;;;;;;6173244;23;20016;-82
2023/10/24 12:14:22;;;;;;;10.35;7.28;;;12.90;99.90;;;;;;6176320;23;20122;-82
2023/10/24 12:16:47;;;;;;;11.73;6.50;;;12.90;99.90;;;;;;6200995;23;20044;-81
2023/10/24 12:19:13;;;;;;;11.55;7.35;;;13.00;99.90;;;;;;6201849;23;20277;-81
2023/10/24 12:21:39;;;;;;;11.75;6.50;;;13.10;99.90;;;;;;6179251;23;20433;-81
2023/10/24 12:24:05;;;;;;;11.00;6.40;;;13.10;99.90;;;;;;6206549;23;20457;-81
2023/10/24 12:26:31;;;;;;;10.05;6.60;;;13.20;99.90;;;;;;6203407;23;20012;-81
2023/10/24 12:28:56;;;;;;;12.45;7.40;;;13.30;99.90;;;;;;6206853;23;20523;-81
2023/10/24 12:31:22;;;;;;;12.13;7.57;;;13.40;99.90;;;;;;6181208;23;20471;-82
2023/10/24 12:33:48;;;;;;;12.65;7.03;;;13.40;99.90;;;;;;6206245;23;20016;-81